N973SE ENTC-ENBO

Flight info

Callsign N973SE
Flight time N/A
Altitude 22000
Route AMIMO DCT GEPTU
Aircraft C414/L-SBDFGRY/S

Departure

Time 2026-04-29 20:35
Airport Tromsø Airport (ENTC)

Arrival

Time N/A
Airport Bodø Airport (ENBO)
Time Latitude Longitude Altitude Speed Heading
2026-04-29 20:21 69.68492 18.91370 21 ft 0 kts 193°
2026-04-29 20:31 69.68491 18.91370 21 ft 1 kts 187°
2026-04-29 20:31 69.68484 18.91382 21 ft 2 kts 116°
2026-04-29 20:31 69.68492 18.91436 21 ft 4 kts 60°
2026-04-29 20:31 69.68512 18.91529 21 ft 7 kts 41°
2026-04-29 20:32 69.68563 18.91573 20 ft 9 kts 11°
2026-04-29 20:32 69.68632 18.91619 20 ft 11 kts 13°
2026-04-29 20:32 69.68716 18.91676 19 ft 13 kts 13°
2026-04-29 20:32 69.68782 18.91766 19 ft 9 kts 71°
2026-04-29 20:33 69.68770 18.91958 18 ft 10 kts 104°
2026-04-29 20:33 69.68749 18.92141 17 ft 9 kts 133°
2026-04-29 20:33 69.68725 18.92152 17 ft 0 kts 194°
2026-04-29 20:34 69.68604 18.92066 20 ft 45 kts 192°
2026-04-29 20:34 69.68133 18.91791 63 ft 85 kts 188°
2026-04-29 20:34 69.67527 18.91556 357 ft 87 kts 191°
2026-04-29 20:34 69.66927 18.91255 574 ft 99 kts 192°
2026-04-29 20:35 69.66160 18.90737 643 ft 125 kts 194°
2026-04-29 20:35 69.65264 18.90112 798 ft 139 kts 194°
2026-04-29 20:35 69.64300 18.89432 974 ft 146 kts 194°
2026-04-29 20:35 69.63304 18.88753 1318 ft 142 kts 194°
2026-04-29 20:36 69.62384 18.88249 1851 ft 129 kts 194°
2026-04-29 20:36 69.61524 18.87894 2324 ft 121 kts 194°
2026-04-29 20:36 69.60699 18.87640 2750 ft 118 kts 194°
2026-04-29 20:36 69.59877 18.87427 3135 ft 118 kts 194°
2026-04-29 20:37 69.59074 18.87121 3502 ft 116 kts 202°
2026-04-29 20:37 69.58332 18.86386 3864 ft 110 kts 218°
2026-04-29 20:37 69.57685 18.85240 4235 ft 109 kts 223°
2026-04-29 20:37 69.57059 18.84024 4596 ft 110 kts 223°
2026-04-29 20:38 69.56387 18.82942 4970 ft 112 kts 218°
2026-04-29 20:38 69.55683 18.81913 5301 ft 116 kts 218°
2026-04-29 20:38 69.54958 18.80846 5653 ft 118 kts 219°
2026-04-29 20:38 69.54214 18.79751 6011 ft 122 kts 219°
2026-04-29 20:39 69.53453 18.78625 6360 ft 125 kts 219°
2026-04-29 20:39 69.52675 18.77470 6660 ft 127 kts 219°
2026-04-29 20:39 69.51890 18.76312 6971 ft 127 kts 220°
2026-04-29 20:39 69.51104 18.75147 7303 ft 128 kts 220°
2026-04-29 20:40 69.50314 18.73970 7659 ft 129 kts 221°
2026-04-29 20:40 69.49513 18.72777 8000 ft 131 kts 221°
2026-04-29 20:40 69.48705 18.71569 8272 ft 131 kts 221°
2026-04-29 20:40 69.47883 18.70369 8581 ft 133 kts 221°
2026-04-29 20:41 69.47057 18.69161 8940 ft 134 kts 221°
2026-04-29 20:41 69.46229 18.67937 9277 ft 135 kts 222°
2026-04-29 20:41 69.45394 18.66702 9667 ft 136 kts 222°
2026-04-29 20:41 69.44553 18.65458 10024 ft 137 kts 222°
2026-04-29 20:42 69.43701 18.64197 10350 ft 138 kts 222°
2026-04-29 20:42 69.42847 18.62939 10626 ft 138 kts 221°
2026-04-29 20:42 69.41983 18.61686 10917 ft 140 kts 221°
2026-04-29 20:42 69.41119 18.60411 11215 ft 141 kts 222°
2026-04-29 20:43 69.40244 18.59118 11544 ft 142 kts 222°
2026-04-29 20:43 69.39364 18.57818 11871 ft 143 kts 221°
2026-04-29 20:43 69.38475 18.56512 12200 ft 144 kts 221°
2026-04-29 20:43 69.37577 18.55199 12526 ft 145 kts 221°
2026-04-29 20:44 69.36674 18.53879 12855 ft 146 kts 221°
2026-04-29 20:44 69.35766 18.52551 13183 ft 147 kts 221°
2026-04-29 20:44 69.34851 18.51217 13522 ft 149 kts 221°
2026-04-29 20:44 69.33930 18.49872 13850 ft 150 kts 221°
2026-04-29 20:45 69.33000 18.48516 14137 ft 151 kts 221°
2026-04-29 20:45 69.32044 18.47215 14444 ft 154 kts 217°
2026-04-29 20:45 69.31054 18.46031 14758 ft 155 kts 216°
2026-04-29 20:45 69.30059 18.44834 15069 ft 156 kts 217°
2026-04-29 20:46 69.29066 18.43614 15374 ft 156 kts 217°
2026-04-29 20:46 69.28064 18.42375 15687 ft 158 kts 217°
2026-04-29 20:46 69.27053 18.41129 16021 ft 159 kts 217°
2026-04-29 20:46 69.26039 18.39875 16348 ft 160 kts 217°
2026-04-29 20:47 69.25022 18.38617 16655 ft 161 kts 218°
2026-04-29 20:47 69.23995 18.37349 16971 ft 161 kts 218°
2026-04-29 20:47 69.22962 18.36071 17292 ft 162 kts 218°
2026-04-29 20:47 69.22277 18.35225 17508 ft 163 kts 218°
2026-04-29 20:48 69.20883 18.33507 17994 ft 164 kts 218°
2026-04-29 20:48 69.19832 18.32211 18313 ft 165 kts 218°
2026-04-29 20:48 69.18774 18.30908 18606 ft 166 kts 219°
2026-04-29 20:48 69.17715 18.29608 18896 ft 166 kts 219°
2026-04-29 20:49 69.16653 18.28303 19190 ft 167 kts 220°
2026-04-29 20:49 69.15587 18.26997 19484 ft 167 kts 220°
2026-04-29 20:49 69.14519 18.25688 19767 ft 168 kts 220°
2026-04-29 20:49 69.13445 18.24373 20055 ft 169 kts 221°
2026-04-29 20:50 69.12368 18.23055 20358 ft 169 kts 221°
2026-04-29 20:50 69.11288 18.21737 20674 ft 169 kts 222°
2026-04-29 20:50 69.10205 18.20414 20984 ft 170 kts 222°
2026-04-29 20:50 69.09118 18.19083 21287 ft 171 kts 223°
2026-04-29 20:51 69.08040 18.17773 21573 ft 171 kts 223°
2026-04-29 20:51 69.06944 18.16444 21859 ft 172 kts 223°
2026-04-29 20:51 69.05834 18.15080 22018 ft 181 kts 223°
2026-04-29 20:51 69.04645 18.13578 22029 ft 193 kts 221°
2026-04-29 20:52 69.03380 18.12008 22048 ft 204 kts 220°
2026-04-29 20:52 69.02048 18.10387 22055 ft 214 kts 220°
2026-04-29 20:52 69.01130 18.09280 22068 ft 220 kts 219°
2026-04-29 20:52 68.99697 18.07557 22057 ft 228 kts 219°
2026-04-29 20:53 68.98221 18.05794 22046 ft 232 kts 218°
2026-04-29 20:53 68.96730 18.04019 22050 ft 234 kts 218°
2026-04-29 20:53 68.95229 18.02231 22052 ft 235 kts 218°
2026-04-29 20:53 68.93719 18.00430 22053 ft 237 kts 218°
2026-04-29 20:54 68.90673 17.96792 22056 ft 238 kts 219°
2026-04-29 20:54 68.89182 17.94848 22062 ft 235 kts 223°
2026-04-29 20:54 68.87763 17.92680 22053 ft 232 kts 225°
2026-04-29 20:55 68.86362 17.90483 22058 ft 233 kts 225°
2026-04-29 20:55 68.84950 17.88271 22065 ft 234 kts 225°
2026-04-29 20:55 68.83526 17.86051 22064 ft 235 kts 225°
2026-04-29 20:55 68.82099 17.83837 22063 ft 235 kts 225°
2026-04-29 20:56 68.80671 17.81630 22046 ft 234 kts 225°
2026-04-29 20:56 68.79254 17.79448 22059 ft 232 kts 225°
2026-04-29 20:56 68.77846 17.77276 22072 ft 232 kts 225°
2026-04-29 20:56 68.76431 17.75091 22067 ft 233 kts 226°
2026-04-29 20:57 68.75014 17.72905 22069 ft 234 kts 225°
2026-04-29 20:57 68.73590 17.70713 22072 ft 235 kts 225°
2026-04-29 20:57 68.72157 17.68511 22073 ft 236 kts 225°
2026-04-29 20:57 68.70718 17.66299 22066 ft 237 kts 225°
2026-04-29 20:58 68.69280 17.64108 22062 ft 235 kts 225°
2026-04-29 20:58 68.67847 17.61929 22069 ft 235 kts 225°
2026-04-29 20:58 68.66418 17.59749 22075 ft 235 kts 225°
2026-04-29 20:58 68.64984 17.57563 22075 ft 236 kts 225°
2026-04-29 20:59 68.63548 17.55375 22075 ft 237 kts 225°
2026-04-29 20:59 68.62107 17.53184 22073 ft 236 kts 225°
2026-04-29 20:59 68.60665 17.50997 22086 ft 237 kts 225°
2026-04-29 20:59 68.59220 17.48808 22067 ft 237 kts 226°
2026-04-29 21:00 68.57781 17.46638 22086 ft 237 kts 225°
2026-04-29 21:00 68.56333 17.44451 22087 ft 237 kts 226°
2026-04-29 21:00 68.54888 17.42273 22085 ft 237 kts 226°
2026-04-29 21:00 68.53445 17.40102 22088 ft 237 kts 225°
2026-04-29 21:01 68.52003 17.37936 22090 ft 237 kts 225°
2026-04-29 21:01 68.50561 17.35773 22092 ft 237 kts 225°
2026-04-29 21:01 68.49113 17.33591 22119 ft 239 kts 226°
2026-04-29 21:01 68.47654 17.31406 22096 ft 239 kts 225°
2026-04-29 21:02 68.46193 17.29231 22092 ft 239 kts 225°
2026-04-29 21:02 68.44737 17.27063 22097 ft 238 kts 226°
2026-04-29 21:02 68.43301 17.24926 22098 ft 238 kts 226°
2026-04-29 21:02 68.41850 17.22768 22099 ft 238 kts 226°
2026-04-29 21:03 68.40401 17.20615 22096 ft 238 kts 226°
2026-04-29 21:03 68.38950 17.18462 22099 ft 238 kts 226°
2026-04-29 21:03 68.37498 17.16309 22102 ft 238 kts 226°
2026-04-29 21:03 68.36044 17.14156 22104 ft 239 kts 226°
2026-04-29 21:04 68.34583 17.11998 22104 ft 239 kts 226°
2026-04-29 21:04 68.33115 17.09832 22101 ft 240 kts 225°
2026-04-29 21:04 68.31651 17.07681 22092 ft 240 kts 226°
2026-04-29 21:04 68.30187 17.05529 22098 ft 240 kts 226°
2026-04-29 21:05 68.28718 17.03366 22094 ft 240 kts 226°
2026-04-29 21:05 68.27253 17.01223 22096 ft 240 kts 225°
2026-04-29 21:05 68.25786 16.99080 22097 ft 239 kts 226°
2026-04-29 21:05 68.24323 16.96942 22115 ft 240 kts 226°
2026-04-29 21:06 68.22851 16.94789 22108 ft 241 kts 226°
2026-04-29 21:06 68.21377 16.92640 22102 ft 241 kts 225°
2026-04-29 21:06 68.19905 16.90503 22098 ft 240 kts 226°
2026-04-29 21:06 68.18436 16.88369 22109 ft 240 kts 226°
2026-04-29 21:07 68.16964 16.86231 22116 ft 241 kts 225°
2026-04-29 21:07 68.15486 16.84085 22106 ft 241 kts 225°
2026-04-29 21:07 68.14026 16.81974 22111 ft 241 kts 225°
2026-04-29 21:07 68.12547 16.79841 21881 ft 243 kts 225°
2026-04-29 21:08 68.11048 16.77669 21637 ft 247 kts 225°
2026-04-29 21:08 68.09525 16.75457 21372 ft 251 kts 224°
2026-04-29 21:08 68.07982 16.73231 21120 ft 253 kts 224°
2026-04-29 21:08 68.06425 16.71001 20858 ft 255 kts 223°
2026-04-29 21:09 68.04861 16.68768 20593 ft 255 kts 223°
2026-04-29 21:09 68.03299 16.66541 20332 ft 254 kts 223°
2026-04-29 21:09 68.01743 16.64325 20080 ft 253 kts 223°
2026-04-29 21:09 68.00189 16.62109 19840 ft 253 kts 222°
2026-04-29 21:10 67.98641 16.59907 19593 ft 252 kts 222°
2026-04-29 21:10 67.97095 16.57710 19341 ft 251 kts 221°
2026-04-29 21:10 67.95559 16.55536 19097 ft 249 kts 221°
2026-04-29 21:10 67.94036 16.53376 18864 ft 248 kts 221°
2026-04-29 21:11 67.92512 16.51212 18627 ft 248 kts 221°
2026-04-29 21:11 67.90993 16.49061 18385 ft 247 kts 221°
2026-04-29 21:11 67.89483 16.46929 18101 ft 246 kts 221°
2026-04-29 21:11 67.88102 16.44486 17825 ft 228 kts 238°
2026-04-29 21:12 67.87322 16.41103 17555 ft 207 kts 262°
2026-04-29 21:12 67.87020 16.37457 17288 ft 201 kts 268°
2026-04-29 21:12 67.86761 16.33821 17047 ft 200 kts 268°
2026-04-29 21:12 67.86503 16.30208 16850 ft 199 kts 268°
2026-04-29 21:13 67.86247 16.26616 16626 ft 198 kts 268°
2026-04-29 21:13 67.85991 16.23036 16419 ft 197 kts 268°
2026-04-29 21:13 67.85735 16.19473 16270 ft 197 kts 268°
2026-04-29 21:13 67.85478 16.15902 16097 ft 197 kts 268°
2026-04-29 21:14 67.85220 16.12347 15919 ft 196 kts 268°
2026-04-29 21:14 67.84964 16.08821 15748 ft 195 kts 268°
2026-04-29 21:14 67.84706 16.05292 15548 ft 193 kts 267°
2026-04-29 21:14 67.84448 16.01794 15400 ft 194 kts 267°
2026-04-29 21:15 67.84191 15.98274 15214 ft 194 kts 267°
2026-04-29 21:15 67.83933 15.94766 15040 ft 194 kts 267°
2026-04-29 21:15 67.83672 15.91256 14871 ft 194 kts 267°
2026-04-29 21:15 67.83411 15.87744 14702 ft 194 kts 267°
2026-04-29 21:16 67.83150 15.84234 14526 ft 194 kts 267°
2026-04-29 21:16 67.82892 15.80777 14353 ft 193 kts 266°
2026-04-29 21:16 67.82629 15.77287 14158 ft 192 kts 266°
2026-04-29 21:16 67.82368 15.73827 13994 ft 191 kts 266°
2026-04-29 21:17 67.82107 15.70376 13815 ft 191 kts 267°
2026-04-29 21:17 67.81847 15.66945 13627 ft 190 kts 266°
2026-04-29 21:17 67.81587 15.63515 13435 ft 190 kts 266°
2026-04-29 21:17 67.81325 15.60091 13253 ft 190 kts 266°
2026-04-29 21:18 67.81065 15.56648 13091 ft 192 kts 266°
2026-04-29 21:18 67.80802 15.53189 12904 ft 192 kts 265°
2026-04-29 21:18 67.80536 15.49723 12713 ft 193 kts 265°
2026-04-29 21:18 67.80269 15.46263 12531 ft 192 kts 265°
2026-04-29 21:19 67.79959 15.42838 12330 ft 194 kts 257°
2026-04-29 21:19 67.79252 15.39720 12147 ft 205 kts 237°
2026-04-29 21:19 67.78078 15.37423 11972 ft 219 kts 215°
2026-04-29 21:19 67.76544 15.36602 11785 ft 236 kts 186°
2026-04-29 21:20 67.74904 15.37402 11613 ft 239 kts 177°
2026-04-29 21:20 67.73270 15.38055 11447 ft 237 kts 181°
2026-04-29 21:20 67.71637 15.38608 11253 ft 236 kts 181°
2026-04-29 21:20 67.70016 15.39183 11072 ft 234 kts 180°
2026-04-29 21:21 67.68402 15.39778 10927 ft 234 kts 180°